Startpagina
METAR-TAF:

METAR-TAF

Vliegvelden :

Trujillo, Peru

breedte: 08-06S, lengte: 079-02W, hoogte: 26 m

Actueel weer

Dit bericht is 49 minuten geleden gemaakt, om 06:00 UTC
Wind 5 kt uit het zuidoosten
Temperatuur 17°C
Vochtigheid 88%
Druk
Zicht: 6000 m
Verspreide wolken op 15000 ft

METAR: SPRU 160600Z 13005KT 6000 SCT150 17/15 Q104 RMK BR PP000

Tijdstip: 01:49 (06:49 UTC)

Verwachting

Dit bericht is 1 uur en het 49 minuten geleden gemaakt, om 05:00 UTC
Verwachting geldig van 16 om 06 UTC tot 17 om 06 UTC
Wind 6 kt uit het zuidoosten
Zicht: 5000 m
Geheel bewolkt op 1500 ft
nevel
Wijzigt naar
van 16 om 14 UTC tot 16 om 16 UTC
Zicht: 7000 m
Verspreide wolken op 1700 ft
Verspreide wolken op 15000 ft
Van 16 om 1900 UTC
Wind 11 kt uit het zuiden
Zicht 10 km of meer
Verspreide wolken op 2000 ft

TAF: SPRU 160500Z 1606/1706 14006KT 5000 BR OVC015 TX20/1619Z TN16/1611Z BECMG 1614/1616 7000 NSW SCT017 SCT150 FM161900 17011KT 9999 SCT020

Waarnemingen en weersverwachtingen van meer dan 4000 vliegvelden (METAR en TAF).

De beschikbare stations zijn de gele en rode punten op de kaart.

Ga met uw muis naar het station om de naam te zien.

Klik dan om waarnemingen en weersverwachtingen te zien.

kaart wijzigen: klik op de groene knoppen met een zwart kruis om in te zoomen, op de groene knop met een streepje om uit te zoomen of op de groene pijlen voor aangrenzende kaarten.


METAR-TAF: